Eglin AFB Auxiliary Field Crestview Okaloosa Florida US
ICAO: KEGI
IATA: EGI
Category: Medium
Scheduled Services: No

Elevation: 191 ft
TransAlt. 18000 ft.

Airport Communications:
APP:37.915
APP:125.1
DEP:120.9
GND:25.112
COMD POST:150.6
PTD:139.3
TWR:133.2

KEGI Zoom In..

Runways:

(A) RW 18 length 8025 ft width 150 ft
ILS 111.70 / hdg 180

(B) RW 36 length 8025 ft width 150 ft
---- / hdg 360

Location; KEGI
Day. 21 / Time. 05.56 Zulu
* Altimeter: 29.93
* Temperature: 27° c. 80.6°f.
* Wind from: 240° Speed 03 kn.
Dewpoint: 25° c.
Visibility: 10 Statute Miles.
Clouds: Clear (automated report).

KEGI 210556Z AUTO 24003KT 10SM CLR 27/25 A2993 RMK AO2 SLP134 T02690253 10315 20269 403270227 58004 FZRANO $


Wind From 240°
Speed 03 kn.

 
 
jpsmedia.com for Web Design worldairports.se 2018   terms of use